Terminal Aerodrome Forecast
Issued by NWS Pueblo, CO

Home | Current Version | Previous Version | Text Only | Print | Product List | Glossary On
Versions: 1 2 3 4 5 6 7 8 9 10 11 12 13 14 15 16 17 18 19 20 21 22 23 24 25 26 27 28 29 30 31 32 33 34 35 36
000
FTUS45 KPUB 181459 AAB
TAFPUB
TAF AMD
KPUB 181459Z 1815/1912 25006KT P6SM SCT100
     FM181600 VRB06KT P6SM SCT030 BKN100
     FM182000 12006KT P6SM SCT040 BKN100
     FM190300 VRB06KT P6SM BKN030
     FM191000 30006KT P6SM SCT080=

USA.gov is the U.S. government's official web portal to all federal, state and local government web resources and services.